sensor_id;sensor_type;location;lat;lon;timestamp;temperature;humidity
2767;DHT22;1391;46.74287300;11.63683300;2023-03-23T00:01:09;7.90;75.80
2767;DHT22;1391;46.74287300;11.63683300;2023-03-23T00:03:40;8.40;75.70
2767;DHT22;1391;46.74287300;11.63683300;2023-03-23T00:06:08;8.00;76.50
2767;DHT22;1391;46.74287300;11.63683300;2023-03-23T00:08:37;7.60;80.50
2767;DHT22;1391;46.74287300;11.63683300;2023-03-23T00:11:10;7.50;82.00
2767;DHT22;1391;46.74287300;11.63683300;2023-03-23T00:13:41;7.80;82.50
2767;DHT22;1391;46.74287300;11.63683300;2023-03-23T00:16:10;7.40;83.50
2767;DHT22;1391;46.74287300;11.63683300;2023-03-23T00:18:44;7.60;84.70
2767;DHT22;1391;46.74287300;11.63683300;2023-03-23T00:21:12;7.90;84.50
2767;DHT22;1391;46.74287300;11.63683300;2023-03-23T00:23:40;7.40;83.90
2767;DHT22;1391;46.74287300;11.63683300;2023-03-23T00:26:11;7.50;88.20
2767;DHT22;1391;46.74287300;11.63683300;2023-03-23T00:28:39;7.50;89.60
2767;DHT22;1391;46.74287300;11.63683300;2023-03-23T00:31:08;7.50;88.70
2767;DHT22;1391;46.74287300;11.63683300;2023-03-23T00:33:37;7.90;87.90
2767;DHT22;1391;46.74287300;11.63683300;2023-03-23T00:36:09;7.80;85.50
2767;DHT22;1391;46.74287300;11.63683300;2023-03-23T00:38:39;7.90;86.00
2767;DHT22;1391;46.74287300;11.63683300;2023-03-23T00:41:08;7.80;85.70
2767;DHT22;1391;46.74287300;11.63683300;2023-03-23T00:43:38;8.00;86.60
2767;DHT22;1391;46.74287300;11.63683300;2023-03-23T00:46:05;8.00;85.70
2767;DHT22;1391;46.74287300;11.63683300;2023-03-23T00:48:35;8.00;87.40
2767;DHT22;1391;46.74287300;11.63683300;2023-03-23T00:51:07;7.90;90.50
2767;DHT22;1391;46.74287300;11.63683300;2023-03-23T00:53:37;7.90;91.00
2767;DHT22;1391;46.74287300;11.63683300;2023-03-23T00:56:06;8.20;87.60
2767;DHT22;1391;46.74287300;11.63683300;2023-03-23T00:58:35;8.30;84.90
2767;DHT22;1391;46.74287300;11.63683300;2023-03-23T01:01:03;8.30;84.20
2767;DHT22;1391;46.74287300;11.63683300;2023-03-23T01:03:32;8.30;84.30
2767;DHT22;1391;46.74287300;11.63683300;2023-03-23T01:06:05;8.20;82.60
2767;DHT22;1391;46.74287300;11.63683300;2023-03-23T01:08:38;8.50;81.00
2767;DHT22;1391;46.74287300;11.63683300;2023-03-23T01:11:12;8.70;80.00
2767;DHT22;1391;46.74287300;11.63683300;2023-03-23T01:13:41;8.90;79.10
2767;DHT22;1391;46.74287300;11.63683300;2023-03-23T01:16:09;8.70;77.90
2767;DHT22;1391;46.74287300;11.63683300;2023-03-23T01:18:37;8.70;77.50
2767;DHT22;1391;46.74287300;11.63683300;2023-03-23T01:21:06;8.90;77.70
2767;DHT22;1391;46.74287300;11.63683300;2023-03-23T01:23:37;8.30;79.90
2767;DHT22;1391;46.74287300;11.63683300;2023-03-23T01:26:06;8.40;80.40
2767;DHT22;1391;46.74287300;11.63683300;2023-03-23T01:28:36;8.30;84.70
2767;DHT22;1391;46.74287300;11.63683300;2023-03-23T01:31:05;7.90;87.30
2767;DHT22;1391;46.74287300;11.63683300;2023-03-23T01:33:33;7.80;86.90
2767;DHT22;1391;46.74287300;11.63683300;2023-03-23T01:36:03;7.90;85.90
2767;DHT22;1391;46.74287300;11.63683300;2023-03-23T01:38:34;7.80;84.90
2767;DHT22;1391;46.74287300;11.63683300;2023-03-23T01:41:02;8.30;84.30
2767;DHT22;1391;46.74287300;11.63683300;2023-03-23T01:43:30;8.30;83.80
2767;DHT22;1391;46.74287300;11.63683300;2023-03-23T01:45:58;8.30;83.50
2767;DHT22;1391;46.74287300;11.63683300;2023-03-23T01:48:29;8.00;83.50
2767;DHT22;1391;46.74287300;11.63683300;2023-03-23T01:50:59;7.80;84.50
2767;DHT22;1391;46.74287300;11.63683300;2023-03-23T01:53:35;8.00;85.50
2767;DHT22;1391;46.74287300;11.63683300;2023-03-23T01:56:06;8.00;85.40
2767;DHT22;1391;46.74287300;11.63683300;2023-03-23T01:58:39;7.50;84.70
2767;DHT22;1391;46.74287300;11.63683300;2023-03-23T02:01:10;7.80;84.90
2767;DHT22;1391;46.74287300;11.63683300;2023-03-23T02:03:42;7.70;84.40
2767;DHT22;1391;46.74287300;11.63683300;2023-03-23T02:06:12;8.00;84.60
2767;DHT22;1391;46.74287300;11.63683300;2023-03-23T02:08:41;7.50;84.20
2767;DHT22;1391;46.74287300;11.63683300;2023-03-23T02:11:13;7.50;84.20
2767;DHT22;1391;46.74287300;11.63683300;2023-03-23T02:13:42;7.20;86.60
2767;DHT22;1391;46.74287300;11.63683300;2023-03-23T02:16:16;7.20;88.10
2767;DHT22;1391;46.74287300;11.63683300;2023-03-23T02:18:58;7.10;88.90
2767;DHT22;1391;46.74287300;11.63683300;2023-03-23T02:22:12;7.00;90.00
2767;DHT22;1391;46.74287300;11.63683300;2023-03-23T02:25:12;7.20;90.00
2767;DHT22;1391;46.74287300;11.63683300;2023-03-23T02:28:14;7.20;90.00
2767;DHT22;1391;46.74287300;11.63683300;2023-03-23T02:33:54;7.20;89.00
2767;DHT22;1391;46.74287300;11.63683300;2023-03-23T02:36:27;7.10;88.90
2767;DHT22;1391;46.74287300;11.63683300;2023-03-23T02:39:01;6.60;89.10
2767;DHT22;1391;46.74287300;11.63683300;2023-03-23T02:41:37;7.20;90.70
2767;DHT22;1391;46.74287300;11.63683300;2023-03-23T02:44:08;7.10;90.90
2767;DHT22;1391;46.74287300;11.63683300;2023-03-23T02:46:36;6.80;90.60
2767;DHT22;1391;46.74287300;11.63683300;2023-03-23T02:49:07;7.20;90.70
2767;DHT22;1391;46.74287300;11.63683300;2023-03-23T02:51:38;6.90;90.40
2767;DHT22;1391;46.74287300;11.63683300;2023-03-23T02:54:07;6.60;90.90
2767;DHT22;1391;46.74287300;11.63683300;2023-03-23T02:56:35;6.90;91.10
2767;DHT22;1391;46.74287300;11.63683300;2023-03-23T02:59:03;6.50;91.50
2767;DHT22;1391;46.74287300;11.63683300;2023-03-23T03:01:51;6.80;92.00
2767;DHT22;1391;46.74287300;11.63683300;2023-03-23T03:04:32;6.80;92.30
2767;DHT22;1391;46.74287300;11.63683300;2023-03-23T03:07:26;6.80;92.20
2767;DHT22;1391;46.74287300;11.63683300;2023-03-23T03:10:04;6.90;92.30
2767;DHT22;1391;46.74287300;11.63683300;2023-03-23T03:12:44;7.20;92.40
2767;DHT22;1391;46.74287300;11.63683300;2023-03-23T03:15:23;7.00;91.80
2767;DHT22;1391;46.74287300;11.63683300;2023-03-23T03:17:58;6.50;91.50
2767;DHT22;1391;46.74287300;11.63683300;2023-03-23T03:20:33;7.10;92.10
2767;DHT22;1391;46.74287300;11.63683300;2023-03-23T03:23:05;6.70;91.90
2767;DHT22;1391;46.74287300;11.63683300;2023-03-23T03:25:35;6.50;92.60
2767;DHT22;1391;46.74287300;11.63683300;2023-03-23T03:28:03;6.10;93.70
2767;DHT22;1391;46.74287300;11.63683300;2023-03-23T03:30:33;6.60;94.50
2767;DHT22;1391;46.74287300;11.63683300;2023-03-23T03:33:03;6.80;94.10
2767;DHT22;1391;46.74287300;11.63683300;2023-03-23T03:35:35;6.80;93.80
2767;DHT22;1391;46.74287300;11.63683300;2023-03-23T03:38:08;7.20;93.90
2767;DHT22;1391;46.74287300;11.63683300;2023-03-23T03:40:36;7.00;93.40
2767;DHT22;1391;46.74287300;11.63683300;2023-03-23T03:43:04;6.60;92.50
2767;DHT22;1391;46.74287300;11.63683300;2023-03-23T03:45:32;6.40;93.10
2767;DHT22;1391;46.74287300;11.63683300;2023-03-23T03:48:00;6.40;94.00
2767;DHT22;1391;46.74287300;11.63683300;2023-03-23T03:50:28;6.70;94.60
2767;DHT22;1391;46.74287300;11.63683300;2023-03-23T03:52:57;6.80;95.10
2767;DHT22;1391;46.74287300;11.63683300;2023-03-23T03:55:24;6.50;95.10
2767;DHT22;1391;46.74287300;11.63683300;2023-03-23T03:57:53;6.80;95.10
2767;DHT22;1391;46.74287300;11.63683300;2023-03-23T04:00:21;6.40;94.50
2767;DHT22;1391;46.74287300;11.63683300;2023-03-23T04:02:50;6.50;94.40
2767;DHT22;1391;46.74287300;11.63683300;2023-03-23T04:05:20;7.20;94.30
2767;DHT22;1391;46.74287300;11.63683300;2023-03-23T04:07:48;6.50;93.60
2767;DHT22;1391;46.74287300;11.63683300;2023-03-23T04:10:19;7.20;94.30
2767;DHT22;1391;46.74287300;11.63683300;2023-03-23T04:12:48;6.80;94.20
2767;DHT22;1391;46.74287300;11.63683300;2023-03-23T04:15:16;6.80;93.80
2767;DHT22;1391;46.74287300;11.63683300;2023-03-23T04:17:43;7.10;93.60
2767;DHT22;1391;46.74287300;11.63683300;2023-03-23T04:20:11;7.10;93.30
2767;DHT22;1391;46.74287300;11.63683300;2023-03-23T04:22:43;7.20;93.40
2767;DHT22;1391;46.74287300;11.63683300;2023-03-23T04:25:16;7.10;93.20
2767;DHT22;1391;46.74287300;11.63683300;2023-03-23T04:27:46;6.60;92.90
2767;DHT22;1391;46.74287300;11.63683300;2023-03-23T04:30:19;6.40;93.70
2767;DHT22;1391;46.74287300;11.63683300;2023-03-23T04:32:49;6.40;94.30
2767;DHT22;1391;46.74287300;11.63683300;2023-03-23T04:35:19;6.80;94.40
2767;DHT22;1391;46.74287300;11.63683300;2023-03-23T04:37:48;6.10;94.50
2767;DHT22;1391;46.74287300;11.63683300;2023-03-23T04:40:17;6.60;94.70
2767;DHT22;1391;46.74287300;11.63683300;2023-03-23T04:42:45;6.20;94.50
2767;DHT22;1391;46.74287300;11.63683300;2023-03-23T04:45:18;6.20;94.80
2767;DHT22;1391;46.74287300;11.63683300;2023-03-23T04:47:48;6.50;95.00
2767;DHT22;1391;46.74287300;11.63683300;2023-03-23T04:50:20;6.70;94.40
2767;DHT22;1391;46.74287300;11.63683300;2023-03-23T04:52:50;6.10;94.30
2767;DHT22;1391;46.74287300;11.63683300;2023-03-23T04:55:19;6.40;95.80
2767;DHT22;1391;46.74287300;11.63683300;2023-03-23T04:57:47;6.00;96.20
2767;DHT22;1391;46.74287300;11.63683300;2023-03-23T05:00:15;6.40;96.80
2767;DHT22;1391;46.74287300;11.63683300;2023-03-23T05:02:44;6.10;95.70
2767;DHT22;1391;46.74287300;11.63683300;2023-03-23T05:05:13;6.00;95.40
2767;DHT22;1391;46.74287300;11.63683300;2023-03-23T05:07:42;6.10;95.60
2767;DHT22;1391;46.74287300;11.63683300;2023-03-23T05:10:10;6.10;95.60
2767;DHT22;1391;46.74287300;11.63683300;2023-03-23T05:12:40;6.10;95.70
2767;DHT22;1391;46.74287300;11.63683300;2023-03-23T05:15:09;6.70;95.90
2767;DHT22;1391;46.74287300;11.63683300;2023-03-23T05:17:37;6.80;95.80
2767;DHT22;1391;46.74287300;11.63683300;2023-03-23T05:20:07;6.20;95.40
2767;DHT22;1391;46.74287300;11.63683300;2023-03-23T05:22:37;6.80;95.30
2767;DHT22;1391;46.74287300;11.63683300;2023-03-23T05:25:06;6.10;94.60
2767;DHT22;1391;46.74287300;11.63683300;2023-03-23T05:27:35;5.70;95.20
2767;DHT22;1391;46.74287300;11.63683300;2023-03-23T05:30:05;5.80;96.60
2767;DHT22;1391;46.74287300;11.63683300;2023-03-23T05:32:33;5.80;97.20
2767;DHT22;1391;46.74287300;11.63683300;2023-03-23T05:35:03;6.20;97.40
2767;DHT22;1391;46.74287300;11.63683300;2023-03-23T05:37:31;6.30;97.10
2767;DHT22;1391;46.74287300;11.63683300;2023-03-23T05:39:59;6.30;96.50
2767;DHT22;1391;46.74287300;11.63683300;2023-03-23T05:42:31;6.40;96.90
2767;DHT22;1391;46.74287300;11.63683300;2023-03-23T05:44:58;6.40;97.40
2767;DHT22;1391;46.74287300;11.63683300;2023-03-23T05:47:27;6.40;98.10
2767;DHT22;1391;46.74287300;11.63683300;2023-03-23T05:49:55;6.40;98.00
2767;DHT22;1391;46.74287300;11.63683300;2023-03-23T05:52:23;6.50;97.30
2767;DHT22;1391;46.74287300;11.63683300;2023-03-23T05:54:51;6.90;96.80
2767;DHT22;1391;46.74287300;11.63683300;2023-03-23T05:57:19;6.70;96.30
2767;DHT22;1391;46.74287300;11.63683300;2023-03-23T05:59:48;6.50;96.00
2767;DHT22;1391;46.74287300;11.63683300;2023-03-23T06:02:16;7.20;95.70
2767;DHT22;1391;46.74287300;11.63683300;2023-03-23T06:04:45;7.20;95.30
2767;DHT22;1391;46.74287300;11.63683300;2023-03-23T06:07:14;6.80;94.90
2767;DHT22;1391;46.74287300;11.63683300;2023-03-23T06:09:42;6.80;94.60
2767;DHT22;1391;46.74287300;11.63683300;2023-03-23T06:12:10;7.00;94.50
2767;DHT22;1391;46.74287300;11.63683300;2023-03-23T06:14:37;6.80;95.20
2767;DHT22;1391;46.74287300;11.63683300;2023-03-23T06:17:05;7.20;97.10
2767;DHT22;1391;46.74287300;11.63683300;2023-03-23T06:19:33;7.20;97.50
2767;DHT22;1391;46.74287300;11.63683300;2023-03-23T06:22:02;7.10;97.60
2767;DHT22;1391;46.74287300;11.63683300;2023-03-23T06:24:31;7.20;97.60
2767;DHT22;1391;46.74287300;11.63683300;2023-03-23T06:27:00;7.50;97.00
2767;DHT22;1391;46.74287300;11.63683300;2023-03-23T06:29:27;7.20;97.20
2767;DHT22;1391;46.74287300;11.63683300;2023-03-23T06:31:59;7.20;97.30
2767;DHT22;1391;46.74287300;11.63683300;2023-03-23T06:34:28;7.50;96.80
2767;DHT22;1391;46.74287300;11.63683300;2023-03-23T06:36:58;7.50;95.80
2767;DHT22;1391;46.74287300;11.63683300;2023-03-23T06:39:27;7.30;95.40
2767;DHT22;1391;46.74287300;11.63683300;2023-03-23T06:41:56;7.40;95.10
2767;DHT22;1391;46.74287300;11.63683300;2023-03-23T06:44:25;7.50;94.30
2767;DHT22;1391;46.74287300;11.63683300;2023-03-23T06:46:54;7.90;93.80
2767;DHT22;1391;46.74287300;11.63683300;2023-03-23T06:49:22;8.00;93.40
2767;DHT22;1391;46.74287300;11.63683300;2023-03-23T06:51:49;7.80;92.00
2767;DHT22;1391;46.74287300;11.63683300;2023-03-23T06:54:17;8.50;91.00
2767;DHT22;1391;46.74287300;11.63683300;2023-03-23T06:56:45;8.60;89.70
2767;DHT22;1391;46.74287300;11.63683300;2023-03-23T06:59:13;8.50;89.80
2767;DHT22;1391;46.74287300;11.63683300;2023-03-23T07:01:41;8.80;88.10
2767;DHT22;1391;46.74287300;11.63683300;2023-03-23T07:04:08;8.80;85.30
2767;DHT22;1391;46.74287300;11.63683300;2023-03-23T07:06:36;9.00;85.70
2767;DHT22;1391;46.74287300;11.63683300;2023-03-23T07:09:03;8.80;83.50
2767;DHT22;1391;46.74287300;11.63683300;2023-03-23T07:11:30;9.10;84.30
2767;DHT22;1391;46.74287300;11.63683300;2023-03-23T07:14:00;8.70;82.90
2767;DHT22;1391;46.74287300;11.63683300;2023-03-23T07:16:28;9.30;82.40
2767;DHT22;1391;46.74287300;11.63683300;2023-03-23T07:18:56;9.20;80.10
2767;DHT22;1391;46.74287300;11.63683300;2023-03-23T07:21:23;9.10;78.90
2767;DHT22;1391;46.74287300;11.63683300;2023-03-23T07:23:51;9.10;77.40
2767;DHT22;1391;46.74287300;11.63683300;2023-03-23T07:26:19;9.30;76.60
2767;DHT22;1391;46.74287300;11.63683300;2023-03-23T07:28:47;9.20;76.30
2767;DHT22;1391;46.74287300;11.63683300;2023-03-23T07:31:15;9.70;76.40
2767;DHT22;1391;46.74287300;11.63683300;2023-03-23T07:33:43;9.80;75.60
2767;DHT22;1391;46.74287300;11.63683300;2023-03-23T07:36:10;10.00;72.60
2767;DHT22;1391;46.74287300;11.63683300;2023-03-23T07:38:38;10.40;72.30
2767;DHT22;1391;46.74287300;11.63683300;2023-03-23T07:41:06;10.60;67.80
2767;DHT22;1391;46.74287300;11.63683300;2023-03-23T07:43:33;10.10;65.90
2767;DHT22;1391;46.74287300;11.63683300;2023-03-23T07:46:01;10.50;66.80
2767;DHT22;1391;46.74287300;11.63683300;2023-03-23T07:48:30;10.40;66.90
2767;DHT22;1391;46.74287300;11.63683300;2023-03-23T07:50:58;10.40;65.20
2767;DHT22;1391;46.74287300;11.63683300;2023-03-23T07:53:25;10.40;64.50
2767;DHT22;1391;46.74287300;11.63683300;2023-03-23T07:55:53;10.70;64.70
2767;DHT22;1391;46.74287300;11.63683300;2023-03-23T07:58:20;10.50;64.10
2767;DHT22;1391;46.74287300;11.63683300;2023-03-23T08:00:48;10.50;62.20
2767;DHT22;1391;46.74287300;11.63683300;2023-03-23T08:03:16;10.60;62.90
2767;DHT22;1391;46.74287300;11.63683300;2023-03-23T08:05:45;10.70;61.90
2767;DHT22;1391;46.74287300;11.63683300;2023-03-23T08:08:12;10.60;63.90
2767;DHT22;1391;46.74287300;11.63683300;2023-03-23T08:10:40;10.80;65.20
2767;DHT22;1391;46.74287300;11.63683300;2023-03-23T08:13:07;10.70;65.00
2767;DHT22;1391;46.74287300;11.63683300;2023-03-23T08:15:35;10.40;64.50
2767;DHT22;1391;46.74287300;11.63683300;2023-03-23T08:18:04;10.60;65.60
2767;DHT22;1391;46.74287300;11.63683300;2023-03-23T08:20:32;11.10;64.00
2767;DHT22;1391;46.74287300;11.63683300;2023-03-23T08:23:01;11.50;61.30
2767;DHT22;1391;46.74287300;11.63683300;2023-03-23T08:25:39;11.80;58.90
2767;DHT22;1391;46.74287300;11.63683300;2023-03-23T08:28:25;12.10;59.40
2767;DHT22;1391;46.74287300;11.63683300;2023-03-23T08:46:38;12.50;57.80
2767;DHT22;1391;46.74287300;11.63683300;2023-03-23T08:49:39;12.30;56.40
2767;DHT22;1391;46.74287300;11.63683300;2023-03-23T09:56:35;15.20;35.70
2767;DHT22;1391;46.74287300;11.63683300;2023-03-23T11:09:01;18.30;32.50
2767;DHT22;1391;46.74287300;11.63683300;2023-03-23T11:11:32;18.20;28.70
2767;DHT22;1391;46.74287300;11.63683300;2023-03-23T11:14:15;18.00;26.40
2767;DHT22;1391;46.74287300;11.63683300;2023-03-23T11:16:46;18.20;27.40
2767;DHT22;1391;46.74287300;11.63683300;2023-03-23T11:19:22;18.10;28.20
2767;DHT22;1391;46.74287300;11.63683300;2023-03-23T11:21:53;18.70;27.70
2767;DHT22;1391;46.74287300;11.63683300;2023-03-23T11:24:25;18.10;26.70
2767;DHT22;1391;46.74287300;11.63683300;2023-03-23T11:26:56;18.60;30.10
2767;DHT22;1391;46.74287300;11.63683300;2023-03-23T11:29:25;19.30;29.40
2767;DHT22;1391;46.74287300;11.63683300;2023-03-23T11:32:03;19.40;25.50
2767;DHT22;1391;46.74287300;11.63683300;2023-03-23T11:34:34;19.30;25.30
2767;DHT22;1391;46.74287300;11.63683300;2023-03-23T11:37:25;18.10;28.70
2767;DHT22;1391;46.74287300;11.63683300;2023-03-23T11:39:59;18.00;25.90
2767;DHT22;1391;46.74287300;11.63683300;2023-03-23T11:42:36;18.40;24.50
2767;DHT22;1391;46.74287300;11.63683300;2023-03-23T11:45:16;18.10;26.90
2767;DHT22;1391;46.74287300;11.63683300;2023-03-23T11:50:47;18.80;28.10
2767;DHT22;1391;46.74287300;11.63683300;2023-03-23T11:53:24;18.60;24.30
2767;DHT22;1391;46.74287300;11.63683300;2023-03-23T11:56:07;18.70;25.60
2767;DHT22;1391;46.74287300;11.63683300;2023-03-23T11:58:38;18.60;26.30
2767;DHT22;1391;46.74287300;11.63683300;2023-03-23T12:01:12;18.70;24.30
2767;DHT22;1391;46.74287300;11.63683300;2023-03-23T12:04:03;18.70;25.50
2767;DHT22;1391;46.74287300;11.63683300;2023-03-23T12:09:28;19.90;21.40
2767;DHT22;1391;46.74287300;11.63683300;2023-03-23T12:12:14;19.90;19.90
2767;DHT22;1391;46.74287300;11.63683300;2023-03-23T12:14:53;19.40;20.40
2767;DHT22;1391;46.74287300;11.63683300;2023-03-23T12:17:33;19.30;20.30
2767;DHT22;1391;46.74287300;11.63683300;2023-03-23T12:20:16;19.80;19.10
2767;DHT22;1391;46.74287300;11.63683300;2023-03-23T12:22:58;19.30;18.40
2767;DHT22;1391;46.74287300;11.63683300;2023-03-23T12:29:14;19.20;19.50
2767;DHT22;1391;46.74287300;11.63683300;2023-03-23T12:32:02;19.30;18.80
2767;DHT22;1391;46.74287300;11.63683300;2023-03-23T12:34:47;19.30;20.00
2767;DHT22;1391;46.74287300;11.63683300;2023-03-23T12:37:29;19.40;19.40
2767;DHT22;1391;46.74287300;11.63683300;2023-03-23T12:40:32;19.40;18.60
2767;DHT22;1391;46.74287300;11.63683300;2023-03-23T12:43:12;19.90;19.00
2767;DHT22;1391;46.74287300;11.63683300;2023-03-23T12:46:01;20.00;17.50
2767;DHT22;1391;46.74287300;11.63683300;2023-03-23T12:48:38;20.00;18.30
2767;DHT22;1391;46.74287300;11.63683300;2023-03-23T12:51:16;20.70;15.00
2767;DHT22;1391;46.74287300;11.63683300;2023-03-23T12:53:54;19.90;15.10
2767;DHT22;1391;46.74287300;11.63683300;2023-03-23T12:56:28;19.40;15.80
2767;DHT22;1391;46.74287300;11.63683300;2023-03-23T12:59:06;19.80;16.20
2767;DHT22;1391;46.74287300;11.63683300;2023-03-23T13:01:41;19.90;17.80
2767;DHT22;1391;46.74287300;11.63683300;2023-03-23T13:04:14;20.60;14.00
2767;DHT22;1391;46.74287300;11.63683300;2023-03-23T13:06:44;20.50;14.40
2767;DHT22;1391;46.74287300;11.63683300;2023-03-23T13:09:16;20.50;14.70
2767;DHT22;1391;46.74287300;11.63683300;2023-03-23T13:11:48;20.70;16.70
2767;DHT22;1391;46.74287300;11.63683300;2023-03-23T13:14:26;20.80;14.90
2767;DHT22;1391;46.74287300;11.63683300;2023-03-23T13:17:08;20.60;16.70
2767;DHT22;1391;46.74287300;11.63683300;2023-03-23T13:20:01;21.50;16.00
2767;DHT22;1391;46.74287300;11.63683300;2023-03-23T13:22:52;21.00;12.40
2767;DHT22;1391;46.74287300;11.63683300;2023-03-23T13:25:39;20.50;12.10
2767;DHT22;1391;46.74287300;11.63683300;2023-03-23T13:28:16;20.90;14.20
2767;DHT22;1391;46.74287300;11.63683300;2023-03-23T13:30:58;21.40;12.10
2767;DHT22;1391;46.74287300;11.63683300;2023-03-23T13:33:31;20.90;11.50
2767;DHT22;1391;46.74287300;11.63683300;2023-03-23T13:36:07;20.60;12.40
2767;DHT22;1391;46.74287300;11.63683300;2023-03-23T13:38:36;20.50;12.00
2767;DHT22;1391;46.74287300;11.63683300;2023-03-23T13:41:10;20.60;11.20
2767;DHT22;1391;46.74287300;11.63683300;2023-03-23T13:43:39;20.60;11.80
2767;DHT22;1391;46.74287300;11.63683300;2023-03-23T13:46:12;20.50;11.90
2767;DHT22;1391;46.74287300;11.63683300;2023-03-23T13:49:15;20.60;10.80
2767;DHT22;1391;46.74287300;11.63683300;2023-03-23T13:52:06;20.60;10.90
2767;DHT22;1391;46.74287300;11.63683300;2023-03-23T13:54:45;20.70;10.90
2767;DHT22;1391;46.74287300;11.63683300;2023-03-23T13:57:35;20.40;11.10
2767;DHT22;1391;46.74287300;11.63683300;2023-03-23T14:03:16;20.30;11.60
2767;DHT22;1391;46.74287300;11.63683300;2023-03-23T14:05:49;20.70;12.80
2767;DHT22;1391;46.74287300;11.63683300;2023-03-23T14:08:23;20.10;10.70
2767;DHT22;1391;46.74287300;11.63683300;2023-03-23T14:10:54;20.00;11.70
2767;DHT22;1391;46.74287300;11.63683300;2023-03-23T14:13:31;20.00;10.80
2767;DHT22;1391;46.74287300;11.63683300;2023-03-23T14:16:03;19.90;11.50
2767;DHT22;1391;46.74287300;11.63683300;2023-03-23T14:18:35;19.90;11.80
2767;DHT22;1391;46.74287300;11.63683300;2023-03-23T14:21:05;19.90;11.40
2767;DHT22;1391;46.74287300;11.63683300;2023-03-23T14:23:39;20.00;11.90
2767;DHT22;1391;46.74287300;11.63683300;2023-03-23T14:26:10;19.90;12.80
2767;DHT22;1391;46.74287300;11.63683300;2023-03-23T14:28:41;19.80;11.50
2767;DHT22;1391;46.74287300;11.63683300;2023-03-23T14:31:17;19.90;13.30
2767;DHT22;1391;46.74287300;11.63683300;2023-03-23T14:33:46;19.80;11.80
2767;DHT22;1391;46.74287300;11.63683300;2023-03-23T14:36:20;20.00;12.10
2767;DHT22;1391;46.74287300;11.63683300;2023-03-23T14:39:02;19.80;11.40
2767;DHT22;1391;46.74287300;11.63683300;2023-03-23T14:41:34;19.80;11.50
2767;DHT22;1391;46.74287300;11.63683300;2023-03-23T14:44:05;19.90;11.00
2767;DHT22;1391;46.74287300;11.63683300;2023-03-23T14:46:34;19.80;12.70
2767;DHT22;1391;46.74287300;11.63683300;2023-03-23T14:49:04;19.80;12.90
2767;DHT22;1391;46.74287300;11.63683300;2023-03-23T14:51:33;19.80;13.10
2767;DHT22;1391;46.74287300;11.63683300;2023-03-23T14:54:01;19.80;14.00
2767;DHT22;1391;46.74287300;11.63683300;2023-03-23T14:56:34;19.80;16.20
2767;DHT22;1391;46.74287300;11.63683300;2023-03-23T14:59:05;19.40;16.60
2767;DHT22;1391;46.74287300;11.63683300;2023-03-23T15:01:36;19.90;17.90
2767;DHT22;1391;46.74287300;11.63683300;2023-03-23T15:04:06;19.70;18.50
2767;DHT22;1391;46.74287300;11.63683300;2023-03-23T15:06:41;19.70;19.30
2767;DHT22;1391;46.74287300;11.63683300;2023-03-23T15:09:13;19.20;19.90
2767;DHT22;1391;46.74287300;11.63683300;2023-03-23T15:11:41;19.20;20.40
2767;DHT22;1391;46.74287300;11.63683300;2023-03-23T15:14:14;19.10;20.30
2767;DHT22;1391;46.74287300;11.63683300;2023-03-23T15:16:46;18.60;20.90
2767;DHT22;1391;46.74287300;11.63683300;2023-03-23T15:19:17;18.60;20.70
2767;DHT22;1391;46.74287300;11.63683300;2023-03-23T15:21:51;18.60;20.80
2767;DHT22;1391;46.74287300;11.63683300;2023-03-23T15:24:31;18.40;20.90
2767;DHT22;1391;46.74287300;11.63683300;2023-03-23T15:27:10;18.50;21.00
2767;DHT22;1391;46.74287300;11.63683300;2023-03-23T15:29:52;18.60;22.60
2767;DHT22;1391;46.74287300;11.63683300;2023-03-23T15:32:22;17.90;21.30
2767;DHT22;1391;46.74287300;11.63683300;2023-03-23T15:34:50;17.90;22.30
2767;DHT22;1391;46.74287300;11.63683300;2023-03-23T15:37:22;18.10;22.20
2767;DHT22;1391;46.74287300;11.63683300;2023-03-23T15:39:53;18.10;22.30
2767;DHT22;1391;46.74287300;11.63683300;2023-03-23T15:42:23;18.00;23.70
2767;DHT22;1391;46.74287300;11.63683300;2023-03-23T15:45:02;17.80;23.10
2767;DHT22;1391;46.74287300;11.63683300;2023-03-23T15:47:49;17.70;23.10
2767;DHT22;1391;46.74287300;11.63683300;2023-03-23T15:50:18;17.40;22.50
2767;DHT22;1391;46.74287300;11.63683300;2023-03-23T15:52:48;17.20;24.30
2767;DHT22;1391;46.74287300;11.63683300;2023-03-23T15:55:23;17.50;24.10
2767;DHT22;1391;46.74287300;11.63683300;2023-03-23T15:57:52;17.40;24.20
2767;DHT22;1391;46.74287300;11.63683300;2023-03-23T16:00:21;17.40;24.90
2767;DHT22;1391;46.74287300;11.63683300;2023-03-23T16:02:54;16.60;24.70
2767;DHT22;1391;46.74287300;11.63683300;2023-03-23T16:05:23;16.60;24.70
2767;DHT22;1391;46.74287300;11.63683300;2023-03-23T16:07:51;16.70;25.60
2767;DHT22;1391;46.74287300;11.63683300;2023-03-23T16:10:23;16.50;25.80
2767;DHT22;1391;46.74287300;11.63683300;2023-03-23T16:12:51;16.50;25.70
2767;DHT22;1391;46.74287300;11.63683300;2023-03-23T16:15:18;16.30;25.30
2767;DHT22;1391;46.74287300;11.63683300;2023-03-23T16:17:46;16.20;25.60
2767;DHT22;1391;46.74287300;11.63683300;2023-03-23T16:20:15;16.00;25.00
2767;DHT22;1391;46.74287300;11.63683300;2023-03-23T16:22:44;16.20;25.40
2767;DHT22;1391;46.74287300;11.63683300;2023-03-23T16:25:13;16.30;25.50
2767;DHT22;1391;46.74287300;11.63683300;2023-03-23T16:27:42;16.00;25.50
2767;DHT22;1391;46.74287300;11.63683300;2023-03-23T16:30:19;15.90;25.70
2767;DHT22;1391;46.74287300;11.63683300;2023-03-23T16:32:49;15.50;27.30
2767;DHT22;1391;46.74287300;11.63683300;2023-03-23T16:35:17;15.80;29.60
2767;DHT22;1391;46.74287300;11.63683300;2023-03-23T16:37:59;15.70;28.90
2767;DHT22;1391;46.74287300;11.63683300;2023-03-23T16:40:28;15.60;29.30
2767;DHT22;1391;46.74287300;11.63683300;2023-03-23T16:42:58;15.00;28.50
2767;DHT22;1391;46.74287300;11.63683300;2023-03-23T16:45:26;15.30;27.90
2767;DHT22;1391;46.74287300;11.63683300;2023-03-23T16:47:53;15.40;27.30
2767;DHT22;1391;46.74287300;11.63683300;2023-03-23T16:50:28;15.00;29.00
2767;DHT22;1391;46.74287300;11.63683300;2023-03-23T16:52:55;15.00;29.90